createdAt,value
2023-12-11T00:01:33.633Z,2.40
2023-12-11T00:04:00.771Z,2.50
2023-12-11T00:06:27.860Z,2.40
2023-12-11T00:08:54.867Z,2.20
2023-12-11T00:11:22.387Z,2.10
2023-12-11T00:13:49.421Z,2.10
2023-12-11T00:16:19.793Z,2.10
2023-12-11T00:18:47.383Z,2.10
2023-12-11T00:21:14.454Z,2.10
2023-12-11T00:23:41.410Z,2.10
2023-12-11T00:26:09.490Z,2.00
2023-12-11T00:28:36.450Z,2.10
2023-12-11T00:31:08.203Z,2.20
2023-12-11T00:33:37.914Z,2.10
2023-12-11T00:37:01.162Z,2.10
2023-12-11T00:39:28.200Z,2.10
2023-12-11T00:41:55.270Z,2.30
2023-12-11T00:44:22.242Z,2.30
2023-12-11T00:46:49.160Z,2.40
2023-12-11T00:49:16.446Z,2.50
2023-12-11T00:51:43.597Z,2.40
2023-12-11T00:54:10.583Z,2.40
2023-12-11T00:56:37.630Z,2.30
2023-12-11T00:59:04.513Z,2.30
2023-12-11T01:01:31.551Z,2.40
2023-12-11T01:03:58.679Z,2.20
2023-12-11T01:06:25.642Z,2.30
2023-12-11T01:08:52.596Z,2.20
2023-12-11T01:11:19.551Z,2.20
2023-12-11T01:13:46.503Z,2.20
2023-12-11T01:16:13.496Z,2.20
2023-12-11T01:18:40.687Z,2.20
2023-12-11T01:21:07.785Z,2.20
2023-12-11T01:23:34.946Z,2.10
2023-12-11T01:26:02.055Z,2.10
2023-12-11T01:28:29.050Z,2.10
2023-12-11T01:31:45.688Z,2.20
2023-12-11T01:34:12.787Z,2.20
2023-12-11T01:36:40.372Z,2.10
2023-12-11T01:39:07.343Z,2.20
2023-12-11T01:41:34.294Z,2.30
2023-12-11T01:44:01.251Z,2.30
2023-12-11T01:46:28.299Z,2.30
2023-12-11T01:48:55.916Z,2.30
2023-12-11T01:51:23.841Z,2.20
2023-12-11T01:53:52.848Z,2.20
2023-12-11T01:56:21.819Z,2.20
2023-12-11T01:58:49.323Z,2.20
2023-12-11T02:01:21.048Z,2.20
2023-12-11T02:03:48.909Z,2.20
2023-12-11T02:06:15.956Z,5.20
2023-12-11T02:08:42.950Z,2.00
2023-12-11T02:11:09.954Z,2.10
2023-12-11T02:13:37.462Z,2.00
2023-12-11T02:16:04.774Z,2.00
2023-12-11T02:18:31.809Z,2.10
2023-12-11T02:20:58.846Z,2.20
2023-12-11T02:23:36.812Z,2.20
2023-12-11T02:26:14.438Z,2.10
2023-12-11T02:28:41.977Z,2.20
2023-12-11T02:31:09.261Z,2.20
2023-12-11T02:33:36.396Z,2.20
2023-12-11T02:36:03.957Z,2.30
2023-12-11T02:38:31.137Z,2.30
2023-12-11T02:40:58.074Z,2.30
2023-12-11T02:43:25.022Z,2.40
2023-12-11T02:45:52.076Z,2.60
2023-12-11T02:48:19.674Z,2.50
2023-12-11T02:50:47.177Z,2.70
2023-12-11T02:53:14.207Z,2.60
2023-12-11T02:55:41.247Z,2.60
2023-12-11T02:58:08.688Z,2.60
2023-12-11T03:00:37.156Z,2.40
2023-12-11T03:03:04.342Z,2.30
2023-12-11T03:05:31.305Z,2.30
2023-12-11T03:07:58.280Z,2.20
2023-12-11T03:10:25.179Z,2.10
2023-12-11T03:12:52.263Z,2.00
2023-12-11T03:15:19.260Z,2.00
2023-12-11T03:17:48.254Z,1.90
2023-12-11T03:20:15.556Z,1.90
2023-12-11T03:22:42.825Z,2.00
2023-12-11T03:25:10.154Z,2.10
2023-12-11T03:27:37.426Z,2.10
2023-12-11T03:30:04.682Z,2.20
2023-12-11T03:32:31.654Z,2.10
2023-12-11T03:34:58.638Z,2.10
2023-12-11T03:37:25.617Z,2.10
2023-12-11T03:39:52.621Z,2.10
2023-12-11T03:42:19.652Z,2.10
2023-12-11T03:44:46.582Z,2.30
2023-12-11T03:47:13.553Z,2.30
2023-12-11T03:49:40.800Z,2.20
2023-12-11T03:52:07.876Z,2.20
2023-12-11T03:54:34.955Z,2.10
2023-12-11T03:57:02.048Z,2.10
2023-12-11T03:59:28.977Z,2.10
2023-12-11T04:01:56.057Z,2.10
2023-12-11T04:04:23.140Z,2.30
2023-12-11T04:06:50.088Z,2.30
2023-12-11T04:09:17.059Z,2.30
2023-12-11T04:11:45.689Z,2.30
2023-12-11T04:14:13.177Z,2.40
2023-12-11T04:16:43.612Z,2.40
2023-12-11T04:19:13.173Z,2.50
2023-12-11T04:21:40.605Z,2.40
2023-12-11T04:24:07.682Z,2.40
2023-12-11T04:26:34.731Z,2.40
2023-12-11T04:29:01.782Z,2.50
2023-12-11T04:31:28.755Z,2.50
2023-12-11T04:33:55.992Z,2.50
2023-12-11T04:36:23.082Z,2.50
2023-12-11T04:38:49.982Z,2.60
2023-12-11T04:41:16.938Z,2.50
2023-12-11T04:43:44.531Z,2.60
2023-12-11T04:46:11.740Z,2.60
2023-12-11T04:48:38.844Z,2.60
2023-12-11T04:51:06.047Z,2.70
2023-12-11T04:53:32.959Z,2.70
2023-12-11T04:56:00.046Z,2.70
2023-12-11T04:58:27.593Z,2.80
2023-12-11T05:00:54.659Z,2.80
2023-12-11T05:03:21.831Z,2.60
2023-12-11T05:05:48.856Z,2.60
2023-12-11T05:08:15.859Z,2.60
2023-12-11T05:10:43.196Z,2.50
2023-12-11T05:13:10.297Z,2.50
2023-12-11T05:15:37.337Z,2.40
2023-12-11T05:18:04.772Z,2.40
2023-12-11T05:20:31.761Z,2.40
2023-12-11T05:22:58.720Z,2.50
2023-12-11T05:25:25.650Z,2.70
2023-12-11T05:27:52.586Z,2.60
2023-12-11T05:30:21.336Z,2.60
2023-12-11T05:32:50.014Z,2.60
2023-12-11T05:35:17.004Z,2.80
2023-12-11T05:37:44.107Z,2.90
2023-12-11T05:40:21.966Z,3.00
2023-12-11T05:42:51.726Z,3.00
2023-12-11T05:45:18.949Z,2.90
2023-12-11T05:47:46.011Z,3.10
2023-12-11T05:50:13.517Z,3.10
2023-12-11T05:52:40.521Z,3.20
2023-12-11T05:55:07.828Z,3.10
2023-12-11T05:57:34.927Z,3.10
2023-12-11T06:00:01.979Z,3.20
2023-12-11T06:02:28.962Z,3.20
2023-12-11T06:04:56.178Z,3.30
2023-12-11T06:07:23.250Z,3.20
2023-12-11T06:09:50.287Z,3.10
2023-12-11T06:12:17.259Z,3.10
2023-12-11T06:14:47.224Z,3.00
2023-12-11T06:17:16.119Z,3.10
2023-12-11T06:19:44.082Z,3.30
2023-12-11T06:22:11.446Z,3.30
2023-12-11T06:24:42.669Z,3.40
2023-12-11T06:27:10.136Z,3.40
2023-12-11T06:29:37.869Z,3.40
2023-12-11T06:32:05.248Z,3.40
2023-12-11T06:34:33.178Z,3.30
2023-12-11T06:37:00.380Z,3.20
2023-12-11T06:39:28.218Z,3.20
2023-12-11T06:41:55.542Z,3.30
2023-12-11T06:44:23.963Z,3.20
2023-12-11T06:46:50.990Z,3.30
2023-12-11T06:49:18.052Z,3.30
2023-12-11T06:51:45.177Z,3.40
2023-12-11T06:54:12.362Z,3.60
2023-12-11T06:56:39.784Z,3.70
2023-12-11T06:59:06.731Z,3.70
2023-12-11T07:01:35.228Z,3.70
2023-12-11T07:04:03.196Z,3.70
2023-12-11T07:06:30.469Z,3.80
2023-12-11T07:08:57.930Z,3.90
2023-12-11T07:11:25.868Z,3.90
2023-12-11T07:13:54.571Z,3.80
2023-12-11T07:16:21.786Z,3.80
2023-12-11T07:18:49.009Z,4.00
2023-12-11T07:21:16.128Z,4.00
2023-12-11T07:23:43.712Z,4.10
2023-12-11T07:26:11.421Z,4.20
2023-12-11T07:28:38.923Z,4.30
2023-12-11T07:31:07.410Z,4.30
2023-12-11T07:33:35.439Z,4.50
2023-12-11T07:36:03.482Z,4.60
2023-12-11T07:38:31.515Z,4.80
2023-12-11T07:40:58.868Z,5.00
2023-12-11T07:43:25.839Z,5.20
2023-12-11T07:45:53.441Z,7.30
2023-12-11T07:48:20.698Z,5.90
2023-12-11T07:50:48.001Z,6.10
2023-12-11T07:53:15.144Z,6.10
2023-12-11T07:55:42.120Z,6.00
2023-12-11T07:58:09.179Z,6.00
2023-12-11T08:00:36.228Z,6.00
2023-12-11T08:03:05.466Z,6.00
2023-12-11T08:05:32.836Z,6.20
2023-12-11T08:07:59.868Z,6.60
2023-12-11T08:10:26.934Z,7.00
2023-12-11T08:12:54.241Z,7.40
2023-12-11T08:15:21.287Z,7.60
2023-12-11T08:17:48.354Z,7.90
2023-12-11T08:20:18.677Z,8.30
2023-12-11T08:22:46.293Z,8.80
2023-12-11T08:25:15.148Z,9.40
2023-12-11T08:27:43.805Z,9.80
2023-12-11T08:30:12.571Z,9.90
2023-12-11T08:32:41.277Z,10.00
2023-12-11T08:35:09.801Z,10.00
2023-12-11T08:37:37.721Z,10.00
2023-12-11T08:40:06.468Z,10.00
2023-12-11T08:42:39.215Z,10.00
2023-12-11T08:45:09.244Z,9.90
2023-12-11T08:47:39.009Z,9.90
2023-12-11T08:50:08.509Z,9.80
2023-12-11T08:52:37.150Z,9.60
2023-12-11T08:55:04.550Z,9.50
2023-12-11T08:57:31.883Z,9.50
2023-12-11T08:59:59.097Z,9.50
2023-12-11T09:02:26.171Z,9.50
2023-12-11T09:04:53.483Z,9.50
2023-12-11T09:07:20.677Z,9.60
2023-12-11T09:09:47.882Z,9.70
2023-12-11T09:12:27.293Z,9.80
2023-12-11T09:14:58.251Z,10.00
2023-12-11T09:17:25.350Z,10.10
2023-12-11T09:19:55.712Z,10.20
2023-12-11T09:22:24.528Z,10.30
2023-12-11T09:24:52.140Z,10.30
2023-12-11T09:27:19.193Z,10.40
2023-12-11T09:29:49.818Z,10.60
2023-12-11T09:32:17.633Z,10.70
2023-12-11T09:34:45.174Z,10.70
2023-12-11T09:37:12.922Z,10.80
2023-12-11T09:39:40.621Z,10.90
2023-12-11T09:42:09.198Z,11.00
2023-12-11T09:44:37.603Z,11.10
2023-12-11T09:47:21.071Z,11.40
2023-12-11T09:49:48.324Z,11.60
2023-12-11T09:52:15.804Z,11.90
2023-12-11T09:54:43.337Z,12.40
2023-12-11T09:57:16.483Z,12.90
2023-12-11T09:59:44.341Z,13.00
2023-12-11T10:02:18.401Z,13.20
2023-12-11T10:05:11.201Z,13.40
2023-12-11T10:07:42.729Z,13.40
2023-12-11T10:10:29.525Z,13.60
2023-12-11T10:12:57.116Z,14.00
2023-12-11T10:15:29.720Z,14.30
2023-12-11T10:18:13.052Z,14.60
2023-12-11T10:20:42.567Z,14.80
2023-12-11T10:23:16.181Z,15.00
2023-12-11T10:25:45.592Z,15.30
2023-12-11T10:28:14.499Z,15.40
2023-12-11T10:31:00.734Z,15.50
2023-12-11T10:33:33.168Z,15.60
2023-12-11T10:36:12.653Z,15.60
2023-12-11T10:38:40.303Z,15.60
2023-12-11T10:41:08.008Z,15.50
2023-12-11T10:43:56.701Z,15.80
2023-12-11T10:46:31.845Z,16.10
2023-12-11T10:49:00.727Z,16.70
2023-12-11T10:51:28.765Z,17.80
2023-12-11T10:53:56.555Z,18.60
2023-12-11T10:56:23.937Z,19.50
2023-12-11T10:58:51.375Z,20.00
2023-12-11T11:01:18.792Z,20.60
2023-12-11T11:03:46.009Z,21.40
2023-12-11T11:06:13.487Z,21.60
2023-12-11T11:08:53.318Z,21.90
2023-12-11T11:11:33.981Z,21.80
2023-12-11T11:14:07.046Z,20.70
2023-12-11T11:16:55.988Z,19.70
2023-12-11T11:19:23.618Z,18.60
2023-12-11T11:22:05.702Z,18.20
2023-12-11T11:24:35.932Z,17.70
2023-12-11T11:27:04.217Z,17.40
2023-12-11T11:29:45.451Z,16.80
2023-12-11T11:32:13.488Z,16.80
2023-12-11T11:34:46.258Z,17.70
2023-12-11T11:37:22.330Z,18.40
2023-12-11T11:40:00.024Z,19.10
2023-12-11T11:42:33.327Z,19.40
2023-12-11T11:45:06.496Z,20.10
2023-12-11T11:47:33.997Z,19.40
2023-12-11T11:50:09.150Z,18.90
2023-12-11T11:52:37.285Z,18.00
2023-12-11T11:55:18.557Z,17.20
2023-12-11T11:57:45.670Z,16.70
2023-12-11T12:00:13.062Z,16.20
2023-12-11T12:02:40.133Z,16.30
2023-12-11T12:05:12.165Z,16.70
2023-12-11T12:07:41.243Z,17.10
2023-12-11T12:10:12.167Z,17.00
2023-12-11T12:12:39.826Z,16.60
2023-12-11T12:15:10.506Z,16.50
2023-12-11T12:17:40.908Z,16.40
2023-12-11T12:20:18.493Z,16.50
2023-12-11T12:23:02.872Z,16.60
2023-12-11T12:25:31.317Z,16.20
2023-12-11T12:28:11.237Z,15.70
2023-12-11T12:30:38.464Z,15.60
2023-12-11T12:33:12.696Z,16.60
2023-12-11T12:35:40.215Z,16.10
2023-12-11T12:38:08.806Z,16.30
2023-12-11T12:40:36.577Z,16.60
2023-12-11T12:43:14.432Z,16.50
2023-12-11T12:45:42.736Z,16.30
2023-12-11T12:48:10.994Z,16.20
2023-12-11T12:50:38.224Z,16.30
2023-12-11T12:53:11.847Z,16.80
2023-12-11T12:55:40.753Z,17.30
2023-12-11T12:58:12.159Z,17.60
2023-12-11T13:00:42.136Z,17.50
2023-12-11T13:03:09.684Z,17.40
2023-12-11T13:05:45.277Z,17.20
2023-12-11T13:08:16.041Z,17.10
2023-12-11T13:10:58.506Z,17.00
2023-12-11T13:13:29.214Z,16.90
2023-12-11T13:15:57.774Z,16.60
2023-12-11T13:18:26.431Z,16.10
2023-12-11T13:20:53.533Z,15.90
2023-12-11T13:23:20.577Z,15.40
2023-12-11T13:25:47.554Z,15.10
2023-12-11T13:28:14.505Z,15.00
2023-12-11T13:30:43.113Z,14.80
2023-12-11T13:33:10.504Z,14.70
2023-12-11T13:35:38.019Z,14.50
2023-12-11T13:38:05.027Z,14.50
2023-12-11T13:40:32.026Z,14.40
2023-12-11T13:42:59.093Z,14.20
2023-12-11T13:45:26.068Z,14.10
2023-12-11T13:47:53.260Z,14.00
2023-12-11T13:50:20.331Z,13.90
2023-12-11T13:52:47.945Z,13.80
2023-12-11T13:55:15.658Z,13.70
2023-12-11T13:57:42.634Z,13.60
2023-12-11T14:00:10.243Z,13.40
2023-12-11T14:02:59.789Z,13.50
2023-12-11T14:05:24.165Z,13.40
2023-12-11T14:07:53.089Z,13.30
2023-12-11T14:10:20.340Z,13.30
2023-12-11T14:12:47.346Z,13.20
2023-12-11T14:15:14.407Z,13.20
2023-12-11T14:17:41.479Z,13.20
2023-12-11T14:20:10.264Z,13.00
2023-12-11T14:22:41.332Z,13.00
2023-12-11T14:25:09.740Z,13.00
2023-12-11T14:27:37.046Z,12.90
2023-12-11T14:30:04.397Z,12.90
2023-12-11T14:32:32.636Z,12.80
2023-12-11T14:34:59.603Z,12.70
2023-12-11T14:37:26.641Z,12.70
2023-12-11T14:39:54.249Z,12.70
2023-12-11T14:42:24.839Z,12.70
2023-12-11T14:44:58.326Z,12.70
2023-12-11T14:47:26.314Z,12.60
2023-12-11T14:49:53.672Z,12.60
2023-12-11T14:52:20.681Z,12.60
2023-12-11T14:54:47.744Z,12.50
2023-12-11T14:57:14.706Z,12.60
2023-12-11T14:59:42.141Z,12.60
2023-12-11T15:02:10.826Z,12.50
2023-12-11T15:04:37.868Z,12.50
2023-12-11T15:07:06.423Z,12.50
2023-12-11T15:09:35.700Z,12.60
2023-12-11T15:12:02.798Z,12.50
2023-12-11T15:14:31.331Z,12.50
2023-12-11T15:16:59.477Z,12.40
2023-12-11T15:19:26.543Z,12.40
2023-12-11T15:21:53.538Z,12.50
2023-12-11T15:24:20.575Z,12.50
2023-12-11T15:26:47.560Z,12.50
2023-12-11T15:29:14.508Z,12.50
2023-12-11T15:31:43.382Z,12.50
2023-12-11T15:34:10.404Z,12.50
2023-12-11T15:36:37.479Z,12.40
2023-12-11T15:39:04.822Z,12.40
2023-12-11T15:41:31.882Z,12.40
2023-12-11T15:43:58.868Z,12.40
2023-12-11T15:46:25.837Z,12.50
2023-12-11T15:48:53.002Z,12.50
2023-12-11T15:51:20.519Z,12.60
2023-12-11T15:53:47.820Z,12.50
2023-12-11T15:56:17.420Z,12.50
2023-12-11T15:58:45.718Z,12.50
2023-12-11T16:01:12.977Z,12.40
2023-12-11T16:03:40.426Z,12.50
2023-12-11T16:06:08.614Z,12.40
2023-12-11T16:08:36.090Z,12.50
2023-12-11T16:11:03.578Z,12.50
2023-12-11T16:13:31.791Z,12.50
2023-12-11T16:15:59.035Z,12.60
2023-12-11T16:18:26.205Z,12.50
2023-12-11T16:20:53.316Z,12.60
2023-12-11T16:23:20.327Z,12.60
2023-12-11T16:25:56.036Z,12.40
2023-12-11T16:28:29.773Z,12.40
2023-12-11T16:30:57.133Z,12.20
2023-12-11T16:33:25.236Z,12.10
2023-12-11T16:35:52.324Z,12.10
2023-12-11T16:38:19.405Z,12.10
2023-12-11T16:40:46.365Z,12.00
2023-12-11T16:43:13.437Z,11.90
2023-12-11T16:45:44.076Z,11.80
2023-12-11T16:48:11.524Z,11.70
2023-12-11T16:50:39.834Z,11.80
2023-12-11T16:53:07.648Z,11.70
2023-12-11T16:55:34.660Z,11.80
2023-12-11T16:58:01.699Z,11.70
2023-12-11T17:00:28.861Z,11.70
2023-12-11T17:02:56.247Z,11.60
2023-12-11T17:05:24.604Z,11.50
2023-12-11T17:07:54.710Z,11.50
2023-12-11T17:10:21.809Z,11.50
2023-12-11T17:12:48.904Z,11.60
2023-12-11T17:15:16.283Z,11.70
2023-12-11T17:17:43.309Z,11.70
2023-12-11T17:20:10.843Z,11.70
2023-12-11T17:22:38.006Z,11.70
2023-12-11T17:25:05.516Z,11.60
2023-12-11T17:27:32.836Z,11.70
2023-12-11T17:30:03.412Z,11.80
2023-12-11T17:32:32.541Z,11.90
2023-12-11T17:35:00.113Z,11.80
2023-12-11T17:37:27.285Z,11.90
2023-12-11T17:39:56.722Z,11.80
2023-12-11T17:42:23.891Z,11.80
2023-12-11T17:44:51.810Z,12.00
2023-12-11T17:47:18.714Z,12.00
2023-12-11T17:49:45.873Z,11.90
2023-12-11T17:52:12.932Z,12.00
2023-12-11T17:54:39.842Z,12.10
2023-12-11T17:57:07.851Z,12.10
2023-12-11T17:59:34.803Z,12.10
2023-12-11T18:02:01.827Z,12.00
2023-12-11T18:04:28.947Z,12.10
2023-12-11T18:06:57.612Z,12.20
2023-12-11T18:09:24.961Z,12.20
2023-12-11T18:11:51.935Z,12.20
2023-12-11T18:14:18.814Z,12.20
2023-12-11T18:16:45.821Z,12.20
2023-12-11T18:19:12.928Z,12.20
2023-12-11T18:21:41.631Z,12.10
2023-12-11T18:24:08.669Z,12.00
2023-12-11T18:26:35.681Z,12.00
2023-12-11T18:29:02.719Z,12.10
2023-12-11T18:31:29.647Z,12.10
2023-12-11T18:33:57.294Z,12.00
2023-12-11T18:36:24.439Z,12.10
2023-12-11T18:38:52.447Z,12.10
2023-12-11T18:41:24.175Z,12.10
2023-12-11T18:43:51.535Z,12.10
2023-12-11T18:46:22.788Z,12.10
2023-12-11T18:48:49.989Z,12.10
2023-12-11T18:51:28.209Z,12.10
2023-12-11T18:53:55.594Z,12.20
2023-12-11T18:56:23.755Z,12.20
2023-12-11T18:58:50.971Z,12.20
2023-12-11T19:01:18.001Z,12.20
2023-12-11T19:03:45.576Z,12.20
2023-12-11T19:06:12.630Z,12.20
2023-12-11T19:08:39.519Z,12.10
2023-12-11T19:11:07.389Z,12.10
2023-12-11T19:13:37.263Z,12.20
2023-12-11T19:16:04.445Z,12.20
2023-12-11T19:18:31.489Z,12.10
2023-12-11T19:20:58.489Z,12.10
2023-12-11T19:23:25.544Z,12.20
2023-12-11T19:25:53.140Z,12.20
2023-12-11T19:28:21.057Z,12.20
2023-12-11T19:30:48.427Z,12.20
2023-12-11T19:33:15.679Z,12.20
2023-12-11T19:35:42.798Z,12.20
2023-12-11T19:38:09.746Z,12.20
2023-12-11T19:40:36.796Z,12.30
2023-12-11T19:43:03.968Z,12.20
2023-12-11T19:45:31.087Z,12.20
2023-12-11T19:47:58.658Z,12.10
2023-12-11T19:50:28.604Z,12.00
2023-12-11T19:52:55.528Z,11.90
2023-12-11T19:55:22.551Z,11.90
2023-12-11T19:57:49.634Z,11.90
2023-12-11T20:00:16.965Z,11.90
2023-12-11T20:02:47.724Z,11.90
2023-12-11T20:05:14.735Z,11.80
2023-12-11T20:07:41.760Z,11.70
2023-12-11T20:10:10.197Z,11.60
2023-12-11T20:12:37.590Z,11.50
2023-12-11T20:15:05.258Z,11.40
2023-12-11T20:17:34.866Z,11.40
2023-12-11T20:20:05.635Z,11.20
2023-12-11T20:22:32.895Z,11.20
2023-12-11T20:25:00.064Z,11.20
2023-12-11T20:27:27.104Z,11.10
2023-12-11T20:29:54.054Z,11.10
2023-12-11T20:32:21.143Z,11.00
2023-12-11T20:34:48.109Z,11.00
2023-12-11T20:37:15.185Z,11.00
2023-12-11T20:39:42.138Z,11.00
2023-12-11T20:42:09.126Z,10.90
2023-12-11T20:44:36.089Z,10.90
2023-12-11T20:47:03.018Z,10.80
2023-12-11T20:49:30.016Z,10.70
2023-12-11T20:54:24.192Z,10.60
2023-12-11T20:56:53.057Z,10.50
2023-12-11T20:59:19.972Z,10.60
2023-12-11T21:01:47.894Z,10.70
2023-12-11T21:04:19.423Z,10.60
2023-12-11T21:06:47.790Z,10.50
2023-12-11T21:09:16.939Z,10.60
2023-12-11T21:11:43.964Z,10.60
2023-12-11T21:14:12.254Z,10.70
2023-12-11T21:16:39.338Z,10.90
2023-12-11T21:19:07.856Z,10.90
2023-12-11T21:21:36.881Z,11.00
2023-12-11T21:24:04.072Z,11.10
2023-12-11T21:26:31.140Z,11.20
2023-12-11T21:28:58.303Z,11.30
2023-12-11T21:31:27.560Z,11.40
2023-12-11T21:33:55.728Z,11.40
2023-12-11T21:36:25.940Z,11.50
2023-12-11T21:38:53.093Z,11.70
2023-12-11T21:41:20.216Z,11.70
2023-12-11T21:43:49.356Z,11.80
2023-12-11T21:46:17.964Z,11.80
2023-12-11T21:48:45.569Z,11.80
2023-12-11T21:51:17.497Z,11.80
2023-12-11T21:53:45.414Z,11.90
2023-12-11T21:56:12.748Z,12.00
2023-12-11T21:58:41.706Z,12.00
2023-12-11T22:01:08.809Z,12.00
2023-12-11T22:03:36.043Z,12.10
2023-12-11T22:06:03.794Z,12.10
2023-12-11T22:08:32.166Z,12.10
2023-12-11T22:10:59.066Z,12.10
2023-12-11T22:13:26.104Z,12.10
2023-12-11T22:15:53.121Z,12.20
2023-12-11T22:18:20.097Z,12.30
2023-12-11T22:20:47.944Z,12.30
2023-12-11T22:23:15.044Z,12.40
2023-12-11T22:25:42.104Z,12.40
2023-12-11T22:28:09.417Z,12.40
2023-12-11T22:30:36.466Z,12.40
2023-12-11T22:33:03.463Z,12.50
2023-12-11T22:35:30.404Z,12.50
2023-12-11T22:37:57.313Z,12.50
2023-12-11T22:40:24.325Z,12.50
2023-12-11T22:42:51.363Z,12.60
2023-12-11T22:45:19.862Z,12.60
2023-12-11T22:47:47.081Z,12.70
2023-12-11T22:50:14.233Z,12.70
2023-12-11T22:52:41.979Z,12.70
2023-12-11T22:55:09.702Z,12.60
2023-12-11T22:57:36.689Z,12.60
2023-12-11T23:00:04.674Z,12.80
2023-12-11T23:02:31.588Z,12.70
2023-12-11T23:04:58.708Z,12.80
2023-12-11T23:07:25.833Z,12.80
2023-12-11T23:09:52.745Z,12.90
2023-12-11T23:12:19.639Z,12.90
2023-12-11T23:14:46.553Z,12.90
2023-12-11T23:17:13.426Z,12.90
2023-12-11T23:19:40.887Z,13.00
2023-12-11T23:22:08.026Z,13.00
2023-12-11T23:24:34.934Z,13.00
2023-12-11T23:27:02.008Z,13.00
2023-12-11T23:29:28.881Z,13.00
2023-12-11T23:31:55.743Z,13.00
2023-12-11T23:34:22.742Z,13.00
2023-12-11T23:36:49.793Z,12.90
2023-12-11T23:39:16.770Z,12.90
2023-12-11T23:41:44.835Z,12.90
2023-12-11T23:44:11.916Z,12.80
2023-12-11T23:46:38.983Z,12.80
2023-12-11T23:49:06.366Z,12.90
2023-12-11T23:51:33.475Z,12.90
2023-12-11T23:54:00.728Z,12.90
2023-12-11T23:56:27.641Z,13.00
2023-12-11T23:58:54.528Z,12.90
